Time;durP1;ratioP1;P1;durP2;ratioP2;P2;SDS_P1;SDS_P2;PMS_P1;PMS_P2;Temp;Humidity;BMP_temperature;BMP_pressure;BME280_temperature;BME280_humidity;BME280_pressure;Samples;Min_cycle;Max_cycle;Signal;HPM_P1;HPM_P2
2022/07/15 00:00:33;;;;;;;16.73;5.38;;;13.90;99.90;;;;;;5013735;28;20029;-75
2022/07/15 00:02:59;;;;;;;12.30;5.20;;;14.00;99.90;;;;;;5009764;28;20121;-75
2022/07/15 00:05:25;;;;;;;15.73;5.97;;;13.50;99.90;;;;;;5012159;28;20064;-74
2022/07/15 00:07:50;;;;;;;10.60;4.72;;;13.40;99.90;;;;;;5014388;28;20065;-74
2022/07/15 00:10:18;;;;;;;14.57;4.57;;;13.50;99.90;;;;;;5013424;28;20037;-74
2022/07/15 00:13:03;;;;;;;14.95;5.10;;;13.80;99.90;;;;;;5014010;28;20400;-74
2022/07/15 00:15:31;;;;;;;13.48;4.88;;;13.80;99.90;;;;;;5013055;28;20056;-74
2022/07/15 00:18:01;;;;;;;11.88;4.50;;;13.70;99.90;;;;;;5012673;28;20073;-74
2022/07/15 00:20:33;;;;;;;16.45;4.63;;;13.60;99.90;;;;;;5013309;28;20064;-74
2022/07/15 00:23:02;;;;;;;8.63;4.00;;;13.70;99.90;;;;;;5029129;28;20434;-74
2022/07/15 00:25:28;;;;;;;12.18;3.83;;;13.90;99.90;;;;;;5024427;28;20021;-75
2022/07/15 00:28:00;;;;;;;7.22;3.72;;;13.80;99.90;;;;;;5013809;28;20113;-74
2022/07/15 00:30:37;;;;;;;7.65;4.10;;;13.80;99.90;;;;;;5013225;28;20036;-74
2022/07/15 00:33:04;;;;;;;8.95;3.65;;;13.80;99.90;;;;;;5013584;28;20085;-74
2022/07/15 00:35:30;;;;;;;10.85;3.95;;;13.70;99.90;;;;;;5013521;28;20022;-74
2022/07/15 00:37:56;;;;;;;6.60;3.80;;;13.40;99.90;;;;;;5013445;28;20026;-74
2022/07/15 00:40:23;;;;;;;12.35;3.90;;;13.30;99.90;;;;;;5012896;28;20080;-74
2022/07/15 00:42:48;;;;;;;9.40;4.18;;;13.40;99.90;;;;;;5013686;28;20026;-74
2022/07/15 00:45:15;;;;;;;11.82;3.92;;;13.30;99.90;;;;;;5009484;28;20547;-74
2022/07/15 00:47:46;;;;;;;10.93;4.00;;;13.10;99.90;;;;;;5011857;28;20479;-74
2022/07/15 00:50:13;;;;;;;6.85;3.95;;;13.40;99.90;;;;;;5011797;28;20030;-74
2022/07/15 00:52:42;;;;;;;7.80;3.60;;;13.40;99.90;;;;;;5013080;28;20033;-75
2022/07/15 00:55:10;;;;;;;9.02;3.50;;;13.30;99.90;;;;;;5013207;28;20022;-74
2022/07/15 00:57:42;;;;;;;12.25;4.03;;;13.40;99.90;;;;;;5013224;28;20022;-74
2022/07/15 01:00:10;;;;;;;14.18;4.55;;;13.30;99.90;;;;;;5013057;28;20026;-74
2022/07/15 01:02:37;;;;;;;12.95;4.50;;;13.20;99.90;;;;;;5012852;28;20494;-74
2022/07/15 01:05:05;;;;;;;15.98;4.57;;;13.20;99.90;;;;;;5012952;28;20104;-75
2022/07/15 01:07:30;;;;;;;10.77;3.72;;;12.90;99.90;;;;;;5013025;28;20101;-75
2022/07/15 01:09:56;;;;;;;15.05;4.40;;;13.10;99.90;;;;;;5012429;28;20069;-74
2022/07/15 01:12:22;;;;;;;10.30;3.95;;;13.40;99.90;;;;;;5012361;28;20025;-74
2022/07/15 01:14:48;;;;;;;14.40;4.30;;;13.50;99.90;;;;;;5012801;28;20018;-74
2022/07/15 01:17:15;;;;;;;14.88;3.92;;;13.50;99.90;;;;;;5012831;28;20022;-74
2022/07/15 01:19:41;;;;;;;17.30;4.30;;;13.10;99.90;;;;;;5012724;28;20045;-74
2022/07/15 01:22:07;;;;;;;17.08;4.55;;;13.40;99.90;;;;;;5012201;28;20112;-74
2022/07/15 01:24:34;;;;;;;11.48;4.40;;;13.20;99.90;;;;;;5012665;28;20098;-74
2022/07/15 01:27:00;;;;;;;15.88;4.47;;;13.30;99.90;;;;;;5008180;28;20573;-74
2022/07/15 01:29:27;;;;;;;11.95;4.75;;;12.90;99.90;;;;;;5007768;28;20049;-74
2022/07/15 01:31:53;;;;;;;13.68;4.75;;;12.90;99.90;;;;;;5011866;28;20026;-74
2022/07/15 01:34:19;;;;;;;14.07;4.68;;;12.80;99.90;;;;;;5009434;28;20033;-74
2022/07/15 01:36:44;;;;;;;11.40;4.00;;;12.70;99.90;;;;;;5012564;28;20030;-74
2022/07/15 01:39:10;;;;;;;12.38;4.15;;;12.80;99.90;;;;;;5012498;28;20018;-75
2022/07/15 01:41:36;;;;;;;14.20;4.53;;;12.90;99.90;;;;;;5011807;28;20491;-75
2022/07/15 01:44:01;;;;;;;11.85;4.18;;;12.70;99.90;;;;;;5012449;28;20041;-74
2022/07/15 01:46:27;;;;;;;11.32;4.65;;;12.60;99.90;;;;;;5012199;28;20040;-74
2022/07/15 01:51:37;;;;;;;17.98;4.60;;;12.50;99.90;;;;;;5011583;28;20080;-74
2022/07/15 01:54:03;;;;;;;14.18;4.32;;;12.60;99.90;;;;;;5016830;28;20029;-75
2022/07/15 01:56:29;;;;;;;10.73;4.38;;;12.80;99.90;;;;;;5030272;28;20026;-74
2022/07/15 01:58:54;;;;;;;10.30;4.25;;;12.90;99.90;;;;;;5012133;28;20392;-74
2022/07/15 02:01:20;;;;;;;10.93;4.55;;;12.80;99.90;;;;;;5010286;28;20083;-75
2022/07/15 02:03:45;;;;;;;9.95;3.40;;;12.40;99.90;;;;;;5012180;28;20468;-74
2022/07/15 02:06:11;;;;;;;16.33;4.00;;;12.60;99.90;;;;;;5022879;28;20041;-74
2022/07/15 02:08:36;;;;;;;11.13;3.60;;;12.70;99.90;;;;;;5030489;28;20029;-74
2022/07/15 02:11:02;;;;;;;11.50;3.75;;;12.80;99.90;;;;;;5029790;28;20493;-74
2022/07/15 02:13:28;;;;;;;15.35;5.40;;;12.70;99.90;;;;;;5031703;28;20063;-74
2022/07/15 02:15:54;;;;;;;10.45;3.85;;;12.90;99.90;;;;;;5031462;28;20026;-74
2022/07/15 02:18:20;;;;;;;11.35;3.85;;;12.50;99.90;;;;;;5031745;28;20141;-74
2022/07/15 02:20:46;;;;;;;10.55;4.03;;;12.10;99.90;;;;;;5030610;28;20029;-74
2022/07/15 02:23:12;;;;;;;8.70;5.47;;;12.00;99.90;;;;;;5031007;28;20021;-74
2022/07/15 02:25:37;;;;;;;12.43;5.10;;;11.60;99.90;;;;;;5031468;28;20083;-74
2022/07/15 02:28:05;;;;;;;8.95;3.83;;;11.40;99.90;;;;;;5031480;28;20028;-75
2022/07/15 02:30:39;;;;;;;6.57;3.97;;;12.00;99.90;;;;;;5029592;28;20037;-74
2022/07/15 02:33:05;;;;;;;12.65;3.80;;;12.10;99.90;;;;;;5031719;28;20026;-74
2022/07/15 02:35:32;;;;;;;10.35;3.58;;;12.00;99.90;;;;;;5031368;28;20101;-75
2022/07/15 02:37:59;;;;;;;9.20;3.72;;;12.30;99.90;;;;;;5030091;28;20028;-75
2022/07/15 02:40:25;;;;;;;7.10;4.30;;;12.50;99.90;;;;;;5030803;28;20032;-74
2022/07/15 02:42:56;;;;;;;8.93;3.75;;;12.30;99.90;;;;;;5031215;28;20029;-74
2022/07/15 02:45:25;;;;;;;10.73;4.43;;;12.20;99.90;;;;;;5031296;28;20025;-74
2022/07/15 02:47:51;;;;;;;10.85;4.85;;;11.90;99.90;;;;;;5031117;28;20026;-74
2022/07/15 02:50:17;;;;;;;11.07;4.38;;;11.70;99.90;;;;;;5025670;28;20029;-74
2022/07/15 02:52:43;;;;;;;7.90;4.28;;;11.60;99.90;;;;;;5011526;28;20030;-74
2022/07/15 02:55:10;;;;;;;13.20;3.80;;;11.60;99.90;;;;;;5010408;28;20545;-74
2022/07/15 02:57:36;;;;;;;10.70;5.00;;;11.70;99.90;;;;;;5011491;28;20117;-74
2022/07/15 03:00:04;;;;;;;12.50;4.13;;;11.70;99.90;;;;;;5011447;28;20503;-75
2022/07/15 03:02:30;;;;;;;11.15;4.22;;;11.60;99.90;;;;;;5011094;28;20034;-75
2022/07/15 03:04:56;;;;;;;11.05;4.93;;;11.50;99.90;;;;;;5011892;28;20049;-74
2022/07/15 03:07:22;;;;;;;8.82;4.22;;;11.50;99.90;;;;;;5011530;28;20488;-75
2022/07/15 03:09:47;;;;;;;10.75;4.75;;;11.30;99.90;;;;;;5011420;28;20040;-74
2022/07/15 03:12:13;;;;;;;8.15;4.60;;;11.00;99.90;;;;;;5010622;28;20030;-74
2022/07/15 03:14:40;;;;;;;5.50;3.70;;;11.10;99.90;;;;;;5025169;28;20029;-74
2022/07/15 03:17:05;;;;;;;7.95;4.20;;;11.30;99.90;;;;;;5031046;28;20495;-74
2022/07/15 03:19:31;;;;;;;11.82;3.75;;;11.40;99.90;;;;;;5031055;28;20021;-74
2022/07/15 03:21:57;;;;;;;10.07;3.70;;;11.40;99.90;;;;;;5030656;28;20484;-75
2022/07/15 03:24:22;;;;;;;6.57;3.40;;;11.40;99.90;;;;;;5030903;28;20051;-74
2022/07/15 03:26:48;;;;;;;10.80;3.67;;;11.50;99.90;;;;;;5030831;28;20431;-74
2022/07/15 03:29:15;;;;;;;9.60;3.60;;;12.00;99.90;;;;;;5030908;28;20022;-74
2022/07/15 03:31:42;;;;;;;12.65;4.03;;;11.90;99.90;;;;;;5028871;28;20022;-74
2022/07/15 03:34:09;;;;;;;13.15;4.07;;;12.00;99.90;;;;;;5033507;28;20026;-74
2022/07/15 03:36:38;;;;;;;11.73;4.05;;;11.80;99.90;;;;;;5034673;28;20379;-74
2022/07/15 03:39:05;;;;;;;14.65;4.40;;;11.80;99.90;;;;;;5034457;28;20060;-74
2022/07/15 03:41:31;;;;;;;16.27;4.00;;;11.70;99.90;;;;;;5033987;28;20442;-74
2022/07/15 03:43:57;;;;;;;18.58;4.43;;;11.80;99.90;;;;;;5033036;28;20025;-74
2022/07/15 03:46:22;;;;;;;18.25;4.57;;;11.90;99.90;;;;;;5033798;28;20499;-74
2022/07/15 03:48:49;;;;;;;18.40;3.80;;;11.90;99.90;;;;;;5034435;28;20048;-74
2022/07/15 03:51:15;;;;;;;15.93;4.43;;;11.80;99.90;;;;;;5020817;28;20068;-74
2022/07/15 03:53:41;;;;;;;12.88;4.07;;;11.90;99.90;;;;;;5014026;28;20033;-74
2022/07/15 03:56:07;;;;;;;15.65;4.45;;;11.70;99.90;;;;;;5014380;28;20041;-74
2022/07/15 03:58:32;;;;;;;14.15;3.75;;;11.90;99.90;;;;;;5014313;28;20117;-74
2022/07/15 04:00:58;;;;;;;11.70;3.45;;;12.00;99.90;;;;;;5009144;28;20396;-74
2022/07/15 04:03:23;;;;;;;18.98;3.70;;;12.00;99.90;;;;;;5008898;28;20025;-74
2022/07/15 04:05:49;;;;;;;13.82;3.40;;;12.20;99.90;;;;;;5014224;28;20026;-74
2022/07/15 04:08:14;;;;;;;11.05;3.40;;;12.10;99.90;;;;;;5012868;28;20032;-74
2022/07/15 04:10:40;;;;;;;11.93;3.38;;;12.20;99.90;;;;;;5012300;28;20040;-74
2022/07/15 04:13:06;;;;;;;14.82;4.07;;;12.20;99.90;;;;;;5013996;28;20034;-74
2022/07/15 04:15:31;;;;;;;11.52;3.95;;;12.40;99.90;;;;;;5012712;28;20045;-74
2022/07/15 04:17:58;;;;;;;9.32;3.35;;;12.10;99.90;;;;;;5010473;28;20031;-74
2022/07/15 04:20:24;;;;;;;6.97;3.83;;;12.50;99.90;;;;;;5013424;28;20022;-74
2022/07/15 04:22:50;;;;;;;9.20;3.13;;;12.40;99.90;;;;;;5010348;28;20038;-74
2022/07/15 04:25:18;;;;;;;9.38;3.35;;;12.60;99.90;;;;;;5013846;28;20454;-74
2022/07/15 04:27:44;;;;;;;5.72;3.70;;;12.60;99.90;;;;;;5013781;28;20097;-74
2022/07/15 04:30:11;;;;;;;11.32;4.28;;;11.60;99.90;;;;;;5013726;28;20022;-74
2022/07/15 04:32:38;;;;;;;11.27;5.22;;;11.00;99.90;;;;;;5013333;28;20026;-74
2022/07/15 04:35:04;;;;;;;7.88;4.00;;;10.90;99.90;;;;;;5013663;28;20033;-74
2022/07/15 04:37:30;;;;;;;8.48;4.13;;;11.30;99.90;;;;;;5013528;28;20026;-74
2022/07/15 04:39:56;;;;;;;11.77;4.50;;;11.10;99.90;;;;;;5013546;28;20041;-74
2022/07/15 04:42:22;;;;;;;7.95;3.83;;;10.90;99.90;;;;;;5012967;28;20036;-73
2022/07/15 04:44:48;;;;;;;8.15;4.53;;;11.00;99.90;;;;;;5012538;28;20033;-74
2022/07/15 04:47:14;;;;;;;7.30;4.10;;;11.20;99.90;;;;;;5013957;28;20053;-74
2022/07/15 04:52:24;;;;;;;8.88;4.32;;;11.20;99.90;;;;;;5010665;28;20153;-74
2022/07/15 04:54:50;;;;;;;8.43;3.88;;;11.10;99.90;;;;;;5013337;28;20038;-74
2022/07/15 04:57:16;;;;;;;9.50;3.65;;;11.20;99.90;;;;;;5013170;28;20096;-74
2022/07/15 04:59:42;;;;;;;9.55;3.30;;;11.60;99.90;;;;;;5013228;28;20101;-74
2022/07/15 05:02:07;;;;;;;8.27;3.78;;;12.30;99.90;;;;;;5012669;28;20122;-74
2022/07/15 05:04:33;;;;;;;7.45;3.83;;;12.50;99.90;;;;;;5013002;28;20072;-74
2022/07/15 05:06:58;;;;;;;6.75;4.07;;;12.90;99.90;;;;;;5013295;28;20088;-74
2022/07/15 05:09:24;;;;;;;6.72;3.92;;;12.80;99.90;;;;;;5013077;28;20113;-74
2022/07/15 05:11:49;;;;;;;6.90;3.72;;;12.50;99.90;;;;;;5012315;28;20395;-74
2022/07/15 05:14:15;;;;;;;9.05;3.97;;;12.60;99.90;;;;;;5013051;28;20026;-74
2022/07/15 05:16:40;;;;;;;7.60;3.33;;;12.90;99.90;;;;;;5012894;28;20026;-74
2022/07/15 05:19:06;;;;;;;7.65;3.50;;;12.80;99.90;;;;;;5011806;28;20477;-74
2022/07/15 05:21:32;;;;;;;8.95;3.88;;;12.70;99.90;;;;;;5012268;28;20083;-75
2022/07/15 05:23:57;;;;;;;10.80;4.10;;;12.70;99.90;;;;;;5013158;28;20029;-74
2022/07/15 05:26:23;;;;;;;5.88;3.65;;;13.00;99.90;;;;;;5011444;28;20037;-73
2022/07/15 05:28:49;;;;;;;7.90;3.30;;;13.50;99.90;;;;;;5011305;28;20062;-74
2022/07/15 05:31:14;;;;;;;8.30;3.78;;;13.50;99.90;;;;;;5027935;28;20372;-74
2022/07/15 05:33:40;;;;;;;8.40;3.22;;;13.80;99.90;;;;;;5032256;28;20029;-74
2022/07/15 05:36:11;;;;;;;9.93;3.30;;;13.90;99.90;;;;;;5032236;28;20033;-74
2022/07/15 05:38:37;;;;;;;8.77;3.53;;;14.10;99.90;;;;;;5031132;28;20079;-75
2022/07/15 05:41:03;;;;;;;9.20;3.30;;;14.40;99.90;;;;;;5031520;28;20033;-74
2022/07/15 05:43:28;;;;;;;7.72;3.15;;;14.60;99.90;;;;;;5032263;28;20603;-74
2022/07/15 05:45:54;;;;;;;7.55;3.03;;;14.60;99.90;;;;;;5030794;28;20332;-74
2022/07/15 05:48:20;;;;;;;8.02;2.90;;;14.80;99.90;;;;;;5031914;28;20446;-74
2022/07/15 05:50:45;;;;;;;6.30;3.15;;;14.60;99.90;;;;;;5022490;28;20476;-74
2022/07/15 05:53:11;;;;;;;7.68;3.40;;;14.50;99.90;;;;;;5012249;28;20037;-74
2022/07/15 05:55:36;;;;;;;14.10;3.58;;;14.40;99.90;;;;;;5007297;28;20473;-74
2022/07/15 05:58:06;;;;;;;8.57;3.75;;;14.60;99.90;;;;;;5006719;28;20018;-74
2022/07/15 06:00:32;;;;;;;12.70;3.60;;;14.50;99.90;;;;;;5011413;28;20457;-75
2022/07/15 06:02:57;;;;;;;10.23;3.85;;;14.70;99.90;;;;;;5012018;28;20109;-74
2022/07/15 06:05:23;;;;;;;15.77;4.10;;;14.80;99.90;;;;;;5012062;28;20484;-74
2022/07/15 06:07:48;;;;;;;9.75;3.40;;;14.90;99.90;;;;;;5012030;28;20507;-75
2022/07/15 06:10:14;;;;;;;12.48;3.83;;;15.10;99.90;;;;;;5011478;28;20033;-74
2022/07/15 06:12:39;;;;;;;11.98;3.63;;;15.10;99.90;;;;;;5011721;28;20030;-74
2022/07/15 06:15:06;;;;;;;13.18;4.13;;;15.30;99.90;;;;;;5011825;28;20037;-74
2022/07/15 06:17:33;;;;;;;9.00;3.47;;;15.10;99.90;;;;;;5011827;28;20412;-75
2022/07/15 06:19:59;;;;;;;8.45;3.28;;;15.30;99.90;;;;;;5011855;28;20025;-75
2022/07/15 06:22:24;;;;;;;10.55;4.10;;;15.20;99.90;;;;;;5011306;28;20030;-75
2022/07/15 06:24:50;;;;;;;9.18;3.40;;;15.20;99.90;;;;;;5011684;28;20030;-74
2022/07/15 06:27:15;;;;;;;10.40;3.30;;;15.50;99.90;;;;;;5012132;28;20034;-74
2022/07/15 06:29:41;;;;;;;9.90;3.05;;;15.40;99.90;;;;;;5010784;28;20041;-74
2022/07/15 06:32:07;;;;;;;6.32;2.80;;;15.60;99.90;;;;;;5010964;28;20468;-75
2022/07/15 06:34:33;;;;;;;9.75;3.17;;;15.90;99.90;;;;;;5010337;28;20054;-74
2022/07/15 06:36:59;;;;;;;10.32;2.75;;;15.90;99.90;;;;;;5011816;28;20034;-75
2022/07/15 06:39:24;;;;;;;10.25;2.70;;;16.00;99.90;;;;;;5010366;28;20535;-74
2022/07/15 06:41:50;;;;;;;7.18;2.90;;;16.40;99.90;;;;;;5011021;28;20409;-74
2022/07/15 06:44:16;;;;;;;8.77;2.75;;;16.30;99.90;;;;;;5011580;28;20392;-74
2022/07/15 06:46:42;;;;;;;9.55;3.30;;;16.30;99.90;;;;;;5011407;28;20033;-74
2022/07/15 06:49:08;;;;;;;6.65;2.75;;;16.50;99.90;;;;;;5011621;28;20053;-75
2022/07/15 06:51:33;;;;;;;5.93;2.42;;;16.70;99.90;;;;;;5011363;28;20480;-74
2022/07/15 06:53:59;;;;;;;7.40;2.15;;;16.80;99.90;;;;;;5011827;28;20046;-75
2022/07/15 06:56:24;;;;;;;7.57;2.50;;;16.80;99.90;;;;;;5011482;28;20030;-74
2022/07/15 06:58:50;;;;;;;5.80;2.60;;;16.60;99.90;;;;;;5011450;28;20076;-75
2022/07/15 07:01:16;;;;;;;6.10;2.20;;;16.70;99.90;;;;;;5009497;28;20121;-75
2022/07/15 07:03:42;;;;;;;7.95;2.10;;;16.70;99.90;;;;;;5010171;28;20037;-74
2022/07/15 07:06:08;;;;;;;6.75;2.30;;;16.70;99.90;;;;;;5011422;28;20165;-75
2022/07/15 07:08:34;;;;;;;5.65;2.42;;;16.80;99.90;;;;;;5013386;28;20022;-74
2022/07/15 07:10:59;;;;;;;7.38;2.13;;;16.80;99.90;;;;;;5014461;28;20037;-74
2022/07/15 07:13:25;;;;;;;5.57;2.75;;;16.60;99.90;;;;;;5015182;28;20030;-75
2022/07/15 07:15:50;;;;;;;6.75;2.30;;;17.00;99.90;;;;;;5015078;28;20053;-75
2022/07/15 07:18:16;;;;;;;4.40;2.08;;;17.10;99.90;;;;;;5015295;28;20096;-74
2022/07/15 07:20:43;;;;;;;5.45;2.50;;;17.10;99.90;;;;;;5013339;28;20406;-75
2022/07/15 07:23:10;;;;;;;5.32;2.20;;;17.40;99.90;;;;;;5014957;28;20036;-75
2022/07/15 07:25:35;;;;;;;6.32;2.47;;;17.50;99.90;;;;;;5014924;28;20396;-75
2022/07/15 07:28:03;;;;;;;3.75;2.10;;;17.40;99.90;;;;;;5032244;28;20041;-75
2022/07/15 07:30:30;;;;;;;3.13;1.85;;;17.40;99.90;;;;;;5034049;28;20474;-74
2022/07/15 07:32:55;;;;;;;5.38;2.10;;;17.50;99.90;;;;;;5034535;28;20033;-74
2022/07/15 07:35:21;;;;;;;4.40;2.10;;;17.60;99.90;;;;;;5034530;28;20014;-75
2022/07/15 07:37:47;;;;;;;6.50;2.40;;;17.70;99.90;;;;;;5034586;28;20379;-75
2022/07/15 07:40:13;;;;;;;6.32;2.80;;;17.70;99.90;;;;;;5032963;28;20395;-75
2022/07/15 07:42:40;;;;;;;4.35;2.30;;;18.10;99.90;;;;;;5030262;28;20099;-74
2022/07/15 07:45:05;;;;;;;3.25;2.15;;;17.80;99.90;;;;;;5014446;28;20026;-75
2022/07/15 07:47:39;;;;;;;5.85;2.22;;;17.80;99.90;;;;;;5014405;28;20165;-74
2022/07/15 07:50:06;;;;;;;6.65;1.92;;;17.90;99.90;;;;;;5016618;28;20384;-75
2022/07/15 07:52:32;;;;;;;4.13;2.05;;;18.20;99.90;;;;;;5014805;28;20488;-75
2022/07/15 07:54:58;;;;;;;6.07;2.20;;;18.30;99.90;;;;;;5014358;28;20032;-74
2022/07/15 07:57:23;;;;;;;4.63;2.00;;;18.50;99.90;;;;;;5014181;28;20137;-75
2022/07/15 07:59:49;;;;;;;5.85;2.00;;;18.70;99.90;;;;;;5014379;28;20053;-75
2022/07/15 08:02:14;;;;;;;8.40;2.25;;;18.80;99.90;;;;;;5018533;28;20032;-74
2022/07/15 08:04:40;;;;;;;4.10;1.73;;;18.70;99.90;;;;;;5033931;28;20038;-75
2022/07/15 08:07:07;;;;;;;5.35;1.80;;;18.60;99.90;;;;;;5033880;28;20498;-74
2022/07/15 08:09:33;;;;;;;5.18;1.90;;;18.90;99.90;;;;;;5033901;28;20036;-74
2022/07/15 08:11:59;;;;;;;2.80;1.85;;;18.80;99.90;;;;;;5032923;28;20051;-75
2022/07/15 08:14:25;;;;;;;4.45;2.03;;;18.90;99.90;;;;;;5033907;28;20384;-75
2022/07/15 08:16:51;;;;;;;4.88;2.00;;;19.30;99.90;;;;;;5033756;28;20021;-75
2022/07/15 08:19:19;;;;;;;4.47;1.90;;;19.30;99.90;;;;;;5032424;28;20021;-75
2022/07/15 08:21:45;;;;;;;5.00;1.55;;;19.40;99.90;;;;;;5032879;28;20021;-75
2022/07/15 08:24:12;;;;;;;3.10;1.63;;;19.20;99.90;;;;;;5032056;28;20060;-74
2022/07/15 08:26:38;;;;;;;5.03;1.90;;;19.00;99.90;;;;;;5033588;28;20029;-75
2022/07/15 08:29:04;;;;;;;4.38;1.60;;;18.90;99.90;;;;;;5032321;28;20029;-75
2022/07/15 08:31:31;;;;;;;3.35;1.58;;;19.00;99.90;;;;;;5032803;28;20088;-75
2022/07/15 08:33:57;;;;;;;4.50;1.80;;;19.30;99.90;;;;;;5033586;28;20112;-75
2022/07/15 08:36:22;;;;;;;3.70;1.80;;;19.10;99.90;;;;;;5026048;28;20459;-75
2022/07/15 08:38:48;;;;;;;5.90;2.00;;;19.20;99.90;;;;;;5012430;28;20036;-75
2022/07/15 08:41:15;;;;;;;4.03;1.70;;;19.30;99.90;;;;;;5032225;28;20018;-74
2022/07/15 08:43:41;;;;;;;4.88;2.28;;;19.60;99.90;;;;;;5032153;28;20037;-75
2022/07/15 08:46:07;;;;;;;3.65;1.50;;;19.40;99.90;;;;;;5033201;28;20018;-74
2022/07/15 08:48:36;;;;;;;3.42;1.83;;;20.00;99.90;;;;;;5033337;28;20111;-75
2022/07/15 08:51:04;;;;;;;3.63;1.80;;;19.80;99.90;;;;;;5025580;28;20018;-74
2022/07/15 08:53:31;;;;;;;5.82;1.83;;;19.80;99.90;;;;;;5012946;28;20131;-75
2022/07/15 08:55:57;;;;;;;2.97;1.90;;;19.90;99.90;;;;;;5013254;28;20434;-75
2022/07/15 08:58:23;;;;;;;4.63;2.28;;;19.40;99.90;;;;;;5013363;28;20100;-74
2022/07/15 09:00:49;;;;;;;4.97;2.00;;;19.60;99.90;;;;;;5012722;28;20030;-75
2022/07/15 09:03:15;;;;;;;4.82;2.35;;;20.10;99.90;;;;;;5013730;28;20041;-74
2022/07/15 09:05:41;;;;;;;4.43;1.60;;;20.20;99.90;;;;;;5013167;28;20056;-74
2022/07/15 09:08:10;;;;;;;3.28;1.63;;;20.40;99.90;;;;;;5011636;28;20038;-74
2022/07/15 09:10:57;;;;;;;4.57;1.80;;;20.60;99.90;;;;;;5007899;28;20324;-74
2022/07/15 09:13:38;;;;;;;4.10;1.80;;;20.40;99.90;;;;;;5008426;28;20026;-74
2022/07/15 09:16:20;;;;;;;5.07;1.52;;;20.00;99.90;;;;;;5012936;28;20022;-74
2022/07/15 09:18:48;;;;;;;4.10;1.60;;;19.30;99.90;;;;;;5012940;28;20121;-74
2022/07/15 09:21:23;;;;;;;5.18;2.10;;;19.40;99.90;;;;;;5012223;28;20022;-74
2022/07/15 09:23:56;;;;;;;5.15;1.75;;;19.90;99.90;;;;;;5013110;28;20033;-74
2022/07/15 09:26:33;;;;;;;2.95;1.50;;;20.10;99.90;;;;;;5013072;28;20490;-74
2022/07/15 09:29:00;;;;;;;4.47;1.92;;;20.30;99.90;;;;;;5012746;28;20502;-74
2022/07/15 09:34:17;;;;;;;5.82;1.60;;;19.60;99.90;;;;;;5012533;28;20036;-74
2022/07/15 09:36:50;;;;;;;4.05;1.83;;;19.90;99.90;;;;;;5012706;28;20026;-74
2022/07/15 09:39:17;;;;;;;4.65;1.95;;;19.80;99.90;;;;;;5010761;28;20038;-74
2022/07/15 09:41:44;;;;;;;5.63;2.00;;;19.90;99.90;;;;;;5012053;28;20048;-74
2022/07/15 09:44:36;;;;;;;4.38;1.48;;;19.90;99.90;;;;;;5012364;28;20034;-74
2022/07/15 09:47:03;;;;;;;3.90;1.50;;;19.70;99.90;;;;;;5011402;28;20124;-74
2022/07/15 09:49:29;;;;;;;4.65;1.77;;;19.80;99.90;;;;;;5012838;28;20018;-74
2022/07/15 09:52:08;;;;;;;3.53;1.75;;;19.60;99.90;;;;;;5011532;28;20022;-74
2022/07/15 09:54:45;;;;;;;7.35;2.03;;;19.80;99.90;;;;;;5012492;28;20025;-74
2022/07/15 09:57:18;;;;;;;6.35;1.85;;;20.00;99.90;;;;;;5007768;28;20161;-74
2022/07/15 09:59:45;;;;;;;3.85;1.67;;;20.30;99.90;;;;;;5003448;28;20030;-73
2022/07/15 10:02:12;;;;;;;7.57;1.98;;;20.50;99.90;;;;;;5011300;28;20041;-74
2022/07/15 10:04:38;;;;;;;5.82;1.98;;;20.80;99.90;;;;;;5011905;28;20401;-74
2022/07/15 10:07:04;;;;;;;3.35;1.70;;;20.80;99.90;;;;;;5011959;28;20034;-74
2022/07/15 10:09:32;;;;;;;4.18;2.03;;;20.40;99.90;;;;;;5012148;28;20108;-74
2022/07/15 10:12:12;;;;;;;3.92;1.88;;;20.70;99.90;;;;;;5011325;28;20102;-74
2022/07/15 10:15:16;;;;;;;6.72;2.05;;;21.50;99.90;;;;;;5007831;28;20054;-74
2022/07/15 10:18:04;;;;;;;4.03;1.60;;;21.90;99.90;;;;;;5003409;28;20062;-74
2022/07/15 10:21:02;;;;;;;6.15;1.90;;;22.00;99.90;;;;;;5010031;28;20032;-74
2022/07/15 10:24:01;;;;;;;5.35;2.22;;;21.10;99.90;;;;;;5010061;28;20497;-74
2022/07/15 10:26:39;;;;;;;3.55;1.63;;;20.90;99.90;;;;;;5011825;28;20026;-74
2022/07/15 10:29:07;;;;;;;4.13;2.00;;;21.10;99.90;;;;;;5011812;28;20104;-74
2022/07/15 10:31:35;;;;;;;3.70;1.80;;;21.40;99.90;;;;;;5009644;28;20029;-74
2022/07/15 10:34:03;;;;;;;4.30;1.67;;;21.50;99.90;;;;;;5011730;28;20507;-74
2022/07/15 10:36:53;;;;;;;5.35;1.98;;;21.40;99.90;;;;;;5011734;28;20022;-74
2022/07/15 10:39:21;;;;;;;7.32;2.53;;;20.80;99.90;;;;;;5008622;28;20033;-74
2022/07/15 10:41:53;;;;;;;5.88;1.90;;;20.30;99.90;;;;;;5009905;28;20087;-74
2022/07/15 10:44:20;;;;;;;3.72;1.88;;;20.20;99.90;;;;;;5014971;28;20126;-74
2022/07/15 10:46:46;;;;;;;3.55;2.08;;;20.30;99.90;;;;;;5015790;28;20040;-74
2022/07/15 10:49:27;;;;;;;3.20;1.98;;;20.10;99.90;;;;;;5015664;28;20458;-74
2022/07/15 10:51:53;;;;;;;3.90;1.70;;;20.20;99.90;;;;;;5014907;28;20424;-74
2022/07/15 10:54:19;;;;;;;4.32;2.22;;;21.00;99.90;;;;;;5014389;28;20022;-74
2022/07/15 10:56:49;;;;;;;8.30;2.20;;;21.30;99.90;;;;;;5015539;28;20029;-74
2022/07/15 10:59:16;;;;;;;4.28;1.95;;;20.70;99.90;;;;;;5003095;28;20064;-74
2022/07/15 11:01:44;;;;;;;6.05;2.13;;;20.70;99.90;;;;;;5014889;28;20026;-74
2022/07/15 11:04:20;;;;;;;4.32;1.90;;;21.00;99.90;;;;;;5015381;28;20372;-74
2022/07/15 11:07:09;;;;;;;4.10;1.85;;;21.10;99.90;;;;;;5015477;28;20504;-73
2022/07/15 11:09:51;;;;;;;6.05;2.10;;;21.50;99.90;;;;;;5014194;28;20045;-74
2022/07/15 11:12:44;;;;;;;3.53;1.90;;;20.80;99.90;;;;;;5014624;28;20388;-74
2022/07/15 11:15:16;;;;;;;5.75;1.95;;;21.10;99.90;;;;;;5014989;28;20076;-74
2022/07/15 11:17:46;;;;;;;4.25;1.70;;;21.30;99.90;;;;;;5014007;28;20052;-74
2022/07/15 11:20:15;;;;;;;3.28;1.80;;;21.50;99.90;;;;;;5014770;28;20022;-74
2022/07/15 11:22:44;;;;;;;5.18;3.00;;;21.40;99.90;;;;;;5015303;28;20120;-74
2022/07/15 11:25:41;;;;;;;3.67;1.80;;;21.10;99.90;;;;;;5013647;28;20112;-74
2022/07/15 11:28:14;;;;;;;6.22;2.30;;;20.90;99.90;;;;;;5014946;28;20026;-74
2022/07/15 11:30:53;;;;;;;5.00;2.00;;;20.90;99.90;;;;;;5014263;28;20564;-74
2022/07/15 11:33:21;;;;;;;3.22;1.80;;;21.50;99.90;;;;;;5014903;28;20033;-74
2022/07/15 11:35:50;;;;;;;3.60;1.77;;;22.60;99.90;;;;;;5014898;28;20057;-74
2022/07/15 11:38:17;;;;;;;3.70;1.90;;;22.70;99.90;;;;;;5014683;28;20022;-74
2022/07/15 11:46:19;;;;;;;3.45;2.17;;;21.60;99.90;;;;;;5014850;28;20393;-74
2022/07/15 11:48:45;;;;;;;4.47;2.22;;;21.20;99.90;;;;;;5014368;28;20038;-74
2022/07/15 11:51:12;;;;;;;5.20;1.90;;;21.30;99.90;;;;;;5013753;28;20026;-74
2022/07/15 11:53:40;;;;;;;3.95;1.90;;;20.70;99.90;;;;;;5014133;28;20029;-74
2022/07/15 11:56:07;;;;;;;2.58;1.75;;;20.90;99.90;;;;;;5010010;28;20058;-74
2022/07/15 11:58:38;;;;;;;4.13;2.35;;;20.60;99.90;;;;;;5013219;28;20021;-74
2022/07/15 12:01:06;;;;;;;7.13;1.90;;;21.00;99.90;;;;;;5013860;28;20548;-74
2022/07/15 12:03:35;;;;;;;3.95;1.90;;;21.40;99.90;;;;;;5014346;28;20018;-74
2022/07/15 12:06:08;;;;;;;2.22;1.73;;;22.60;99.90;;;;;;5014300;28;20022;-74
2022/07/15 12:08:36;;;;;;;3.95;1.73;;;23.20;99.90;;;;;;5014271;28;20059;-74
2022/07/15 12:11:01;;;;;;;3.30;1.80;;;23.40;99.90;;;;;;5013560;28;20113;-73
2022/07/15 12:13:39;;;;;;;3.95;2.20;;;23.40;99.90;;;;;;5014110;28;20105;-74
2022/07/15 12:16:05;;;;;;;2.95;1.90;;;22.70;99.90;;;;;;5014152;28;20026;-74
2022/07/15 12:18:30;;;;;;;4.45;1.77;;;22.20;99.90;;;;;;5013969;28;20499;-74
2022/07/15 12:20:56;;;;;;;4.90;1.98;;;23.10;99.90;;;;;;5013434;28;20022;-74
2022/07/15 12:23:26;;;;;;;5.82;2.55;;;23.20;99.90;;;;;;5013923;28;20026;-74
2022/07/15 12:26:02;;;;;;;4.90;1.90;;;23.00;99.90;;;;;;5014267;28;20025;-74
2022/07/15 12:28:32;;;;;;;3.38;2.00;;;23.80;99.90;;;;;;5013951;28;20108;-74
2022/07/15 12:30:59;;;;;;;2.88;1.73;;;23.50;99.90;;;;;;5013158;28;20029;-74
2022/07/15 12:33:25;;;;;;;3.17;1.70;;;23.40;99.90;;;;;;5013820;28;20026;-74
2022/07/15 12:36:12;;;;;;;3.28;2.10;;;22.90;99.90;;;;;;5009939;28;20026;-74
2022/07/15 12:38:38;;;;;;;3.40;2.03;;;23.90;99.90;;;;;;5013738;28;20022;-74
2022/07/15 12:41:08;;;;;;;4.78;1.85;;;23.60;99.90;;;;;;5012986;28;20392;-74
2022/07/15 12:43:48;;;;;;;3.92;1.95;;;23.70;99.90;;;;;;5013504;28;20036;-74
2022/07/15 12:46:15;;;;;;;2.40;1.80;;;24.10;99.90;;;;;;5013433;28;20025;-74
2022/07/15 12:48:46;;;;;;;4.78;1.88;;;24.20;99.90;;;;;;5013469;28;20038;-74
2022/07/15 12:51:12;;;;;;;3.53;1.58;;;24.30;99.90;;;;;;5012534;28;20025;-74
2022/07/15 12:53:38;;;;;;;2.67;1.98;;;25.20;99.90;;;;;;5013405;28;20084;-74
2022/07/15 12:56:06;;;;;;;6.18;2.58;;;25.10;99.90;;;;;;5013471;28;20026;-74
2022/07/15 12:58:34;;;;;;;3.55;1.92;;;24.40;99.90;;;;;;5013191;28;20014;-74
2022/07/15 13:01:18;;;;;;;2.70;1.88;;;22.80;99.90;;;;;;5012771;28;20248;-74